Time;durP1;ratioP1;P1;durP2;ratioP2;P2;SDS_P1;SDS_P2;PMS_P1;PMS_P2;Temp;Humidity;BMP_temperature;BMP_pressure;BME280_temperature;BME280_humidity;BME280_pressure;Samples;Min_cycle;Max_cycle;Signal;HPM_P1;HPM_P2
2021/04/14 00:01:57;;;;;;;5.70;2.10;;;3.20;68.50;;;;;;5089464;28;20135;-79
2021/04/14 00:04:24;;;;;;;3.50;1.50;;;3.20;68.20;;;;;;5083681;28;20028;-80
2021/04/14 00:06:52;;;;;;;2.67;1.23;;;3.10;68.30;;;;;;5094059;28;20117;-79
2021/04/14 00:09:18;;;;;;;3.33;1.60;;;3.10;68.30;;;;;;5095827;28;20118;-79
2021/04/14 00:11:44;;;;;;;4.23;1.47;;;3.20;68.60;;;;;;5113019;28;20080;-79
2021/04/14 00:14:10;;;;;;;2.50;1.30;;;3.20;68.50;;;;;;5096280;28;20027;-78
2021/04/14 00:16:36;;;;;;;2.30;1.37;;;3.20;68.40;;;;;;5109944;28;20107;-79
2021/04/14 00:19:03;;;;;;;6.27;1.67;;;3.20;67.80;;;;;;5092956;28;20123;-78
2021/04/14 00:21:30;;;;;;;1.97;1.40;;;3.20;67.80;;;;;;5104714;28;20061;-78
2021/04/14 00:23:55;;;;;;;2.90;1.50;;;3.10;68.00;;;;;;5084950;28;20381;-78
2021/04/14 00:26:22;;;;;;;1.77;1.30;;;3.10;67.80;;;;;;5095182;28;20028;-78
2021/04/14 00:28:48;;;;;;;3.80;1.57;;;3.10;67.90;;;;;;5086636;28;20016;-78
2021/04/14 00:31:15;;;;;;;3.50;1.87;;;3.10;67.80;;;;;;5075232;28;20381;-78
2021/04/14 00:33:41;;;;;;;2.47;1.40;;;2.90;68.30;;;;;;5108400;28;20027;-78
2021/04/14 00:36:08;;;;;;;4.33;1.63;;;2.90;68.80;;;;;;5106676;28;20023;-79
2021/04/14 00:38:34;;;;;;;3.53;1.50;;;2.90;68.80;;;;;;5095124;28;20476;-79
2021/04/14 00:41:06;;;;;;;3.63;1.77;;;2.80;69.10;;;;;;5095888;28;20023;-80
2021/04/14 00:43:33;;;;;;;;;;;2.80;69.80;;;;;;5099875;28;20055;-80
2021/04/14 00:45:59;;;;;;;3.37;1.30;;;2.80;69.60;;;;;;5099776;28;19935;-79
2021/04/14 00:48:26;;;;;;;2.33;1.70;;;2.90;69.20;;;;;;5099757;28;20027;-78
2021/04/14 00:50:52;;;;;;;3.87;1.57;;;2.80;69.50;;;;;;5117027;28;20059;-78
2021/04/14 00:53:18;;;;;;;3.37;1.73;;;2.80;70.10;;;;;;5099588;28;20384;-79
2021/04/14 00:55:44;;;;;;;2.67;1.53;;;2.70;70.30;;;;;;5116850;28;20089;-78
2021/04/14 00:58:10;;;;;;;2.97;1.50;;;2.70;70.20;;;;;;5117582;28;20035;-79
2021/04/14 01:00:50;;;;;;;6.37;1.40;;;2.70;70.10;;;;;;5118336;28;20102;-77
2021/04/14 01:03:19;;;;;;;3.20;1.60;;;2.80;69.70;;;;;;5099402;28;20422;-78
2021/04/14 01:05:46;;;;;;;2.10;1.23;;;2.80;69.40;;;;;;5099063;28;20058;-78
2021/04/14 01:08:12;;;;;;;3.70;1.70;;;2.80;69.60;;;;;;5117855;28;20031;-78
2021/04/14 01:10:37;;;;;;;3.53;1.60;;;2.80;69.70;;;;;;5098832;28;20036;-78
2021/04/14 01:13:04;;;;;;;3.43;1.60;;;2.70;70.10;;;;;;5117678;28;20101;-78
2021/04/14 01:15:37;;;;;;;3.33;1.73;;;2.70;70.30;;;;;;5117354;28;20023;-79
2021/04/14 01:18:05;;;;;;;3.63;1.87;;;2.70;70.40;;;;;;5099416;28;20039;-79
2021/04/14 01:20:31;;;;;;;4.10;1.90;;;2.70;70.40;;;;;;5099106;28;20273;-78
2021/04/14 01:22:57;;;;;;;4.70;1.60;;;2.70;70.90;;;;;;5098748;28;20031;-78
2021/04/14 01:25:30;;;;;;;3.63;1.90;;;2.80;70.50;;;;;;5099120;28;20028;-78
2021/04/14 01:27:56;;;;;;;2.90;1.70;;;2.70;70.20;;;;;;5098568;28;20114;-78
2021/04/14 01:30:28;;;;;;;4.47;2.30;;;2.80;70.40;;;;;;5098980;28;20445;-78
2021/04/14 01:32:54;;;;;;;4.80;1.87;;;2.70;70.40;;;;;;5098570;28;20024;-79
2021/04/14 01:35:24;;;;;;;3.87;1.83;;;2.70;70.70;;;;;;5116934;28;20020;-78
2021/04/14 01:37:50;;;;;;;4.17;1.77;;;2.70;70.70;;;;;;5097880;28;20126;-78
2021/04/14 01:40:19;;;;;;;3.40;1.60;;;2.70;71.30;;;;;;5098987;28;20031;-79
2021/04/14 01:42:45;;;;;;;4.30;1.50;;;2.60;71.50;;;;;;5116262;28;20023;-78
2021/04/14 01:45:13;;;;;;;4.50;1.90;;;2.60;71.50;;;;;;5098803;28;20039;-78
2021/04/14 01:47:39;;;;;;;3.20;1.60;;;2.50;71.70;;;;;;5097806;28;20039;-78
2021/04/14 01:50:07;;;;;;;2.13;1.37;;;2.50;71.20;;;;;;5116553;28;20047;-79
2021/04/14 01:52:33;;;;;;;3.00;1.50;;;2.40;71.20;;;;;;5097510;28;20027;-79
2021/04/14 01:55:00;;;;;;;3.67;1.60;;;2.40;71.10;;;;;;5116597;28;20465;-79
2021/04/14 01:57:25;;;;;;;4.17;1.63;;;2.50;70.90;;;;;;5098368;28;20108;-80
2021/04/14 01:59:52;;;;;;;7.80;1.50;;;2.50;70.80;;;;;;5116092;28;20031;-80
2021/04/14 02:02:18;;;;;;;4.40;1.80;;;2.50;70.70;;;;;;5116652;28;20437;-80
2021/04/14 02:04:44;;;;;;;4.23;1.70;;;2.50;70.60;;;;;;5116107;28;20020;-80
2021/04/14 02:07:10;;;;;;;3.23;1.70;;;2.50;70.70;;;;;;5098635;28;20024;-81
2021/04/14 02:09:36;;;;;;;5.50;1.57;;;2.50;71.10;;;;;;5116240;28;20027;-80
2021/04/14 02:12:03;;;;;;;5.43;2.03;;;2.50;71.00;;;;;;5116781;28;20527;-80
2021/04/14 02:14:28;;;;;;;3.77;1.90;;;2.50;70.90;;;;;;5097990;28;20066;-79
2021/04/14 02:16:54;;;;;;;7.87;2.10;;;2.40;71.50;;;;;;5097803;28;20055;-79
2021/04/14 02:19:20;;;;;;;3.13;1.80;;;2.30;71.40;;;;;;5116661;28;20028;-79
2021/04/14 02:21:45;;;;;;;4.63;2.07;;;2.20;71.60;;;;;;5115821;28;20031;-79
2021/04/14 02:24:11;;;;;;;4.60;1.77;;;2.20;71.10;;;;;;5098600;28;20024;-79
2021/04/14 02:26:36;;;;;;;4.93;1.80;;;2.10;71.20;;;;;;5097800;28;20479;-79
2021/04/14 02:29:02;;;;;;;4.03;1.73;;;2.00;71.60;;;;;;5116260;28;20034;-79
2021/04/14 02:31:31;;;;;;;3.13;1.57;;;2.10;71.60;;;;;;5115902;28;20028;-79
2021/04/14 02:34:02;;;;;;;2.90;1.20;;;2.10;71.50;;;;;;5115431;28;20023;-79
2021/04/14 02:36:28;;;;;;;3.53;1.83;;;2.20;71.30;;;;;;5097907;28;20020;-79
2021/04/14 02:38:54;;;;;;;4.23;1.70;;;2.10;71.20;;;;;;5097248;28;20035;-79
2021/04/14 02:41:20;;;;;;;3.83;1.60;;;2.20;71.30;;;;;;5097962;28;20487;-79
2021/04/14 02:43:50;;;;;;;4.10;1.83;;;2.10;71.10;;;;;;5097132;28;20027;-79
2021/04/14 02:46:16;;;;;;;4.27;1.90;;;2.10;71.10;;;;;;5097835;28;20031;-79
2021/04/14 02:48:42;;;;;;;4.57;2.10;;;2.20;70.80;;;;;;5115436;28;20028;-79
2021/04/14 02:51:08;;;;;;;5.07;1.90;;;2.10;71.40;;;;;;5097685;28;20082;-79
2021/04/14 02:53:34;;;;;;;3.20;1.67;;;2.00;71.80;;;;;;5096931;28;20077;-79
2021/04/14 02:56:00;;;;;;;3.23;1.97;;;1.90;72.20;;;;;;5097637;28;20023;-79
2021/04/14 02:58:26;;;;;;;2.67;1.80;;;1.90;72.40;;;;;;5097480;28;20111;-80
2021/04/14 03:00:52;;;;;;;4.53;2.20;;;1.90;72.50;;;;;;5115003;28;20043;-79
2021/04/14 03:03:18;;;;;;;3.13;1.67;;;1.90;72.40;;;;;;5097424;28;20024;-79
2021/04/14 03:05:43;;;;;;;3.53;2.10;;;1.90;72.60;;;;;;5114062;28;20042;-79
2021/04/14 03:08:09;;;;;;;3.80;1.70;;;1.90;72.70;;;;;;5115341;28;20487;-79
2021/04/14 03:10:35;;;;;;;4.53;1.80;;;1.80;72.90;;;;;;5096833;28;20034;-79
2021/04/14 03:13:03;;;;;;;3.60;2.13;;;1.80;73.20;;;;;;5097440;28;20073;-79
2021/04/14 03:15:33;;;;;;;6.27;2.43;;;1.80;73.20;;;;;;5097061;28;20024;-79
2021/04/14 03:17:59;;;;;;;4.70;2.03;;;1.80;73.40;;;;;;5115365;28;20361;-79
2021/04/14 03:20:25;;;;;;;5.57;2.20;;;1.80;73.50;;;;;;5115238;28;20286;-79
2021/04/14 03:22:53;;;;;;;3.53;2.00;;;1.90;73.30;;;;;;5114490;28;20028;-79
2021/04/14 03:25:19;;;;;;;4.77;2.20;;;1.90;72.90;;;;;;5115152;28;20020;-79
2021/04/14 03:27:45;;;;;;;5.97;2.13;;;1.90;73.20;;;;;;5096155;28;20070;-79
2021/04/14 03:30:11;;;;;;;3.87;2.10;;;2.00;73.20;;;;;;5096525;28;20028;-79
2021/04/14 03:32:37;;;;;;;7.13;2.53;;;2.10;72.70;;;;;;5096084;28;20063;-78
2021/04/14 03:35:05;;;;;;;4.30;2.07;;;2.10;72.60;;;;;;5096618;28;20024;-79
2021/04/14 03:37:31;;;;;;;4.97;2.30;;;2.20;72.20;;;;;;5096637;28;20061;-79
2021/04/14 03:39:56;;;;;;;5.50;2.33;;;2.00;72.50;;;;;;5096185;28;20024;-79
2021/04/14 03:42:22;;;;;;;3.80;1.70;;;2.00;73.10;;;;;;5114567;28;20098;-79
2021/04/14 03:44:51;;;;;;;3.30;2.13;;;2.00;73.10;;;;;;5095920;28;20027;-79
2021/04/14 03:47:18;;;;;;;4.87;1.80;;;2.00;73.80;;;;;;5096491;28;20084;-80
2021/04/14 03:49:44;;;;;;;3.90;2.33;;;2.10;73.60;;;;;;5095823;28;20024;-80
2021/04/14 03:52:09;;;;;;;4.40;2.00;;;2.20;73.30;;;;;;5096699;28;20059;-79
2021/04/14 03:54:35;;;;;;;7.13;2.17;;;2.20;73.00;;;;;;5095449;28;20040;-78
2021/04/14 03:57:01;;;;;;;5.10;2.40;;;2.20;73.00;;;;;;5096328;28;20053;-78
2021/04/14 03:59:27;;;;;;;4.80;2.23;;;2.20;72.80;;;;;;5114327;28;20027;-80
2021/04/14 04:01:54;;;;;;;5.67;2.10;;;2.20;73.00;;;;;;5096076;28;20108;-80
2021/04/14 04:04:20;;;;;;;4.63;2.37;;;2.20;73.40;;;;;;5114755;28;20019;-81
2021/04/14 04:06:46;;;;;;;4.57;2.10;;;2.10;73.80;;;;;;5095991;28;20381;-80
2021/04/14 04:09:12;;;;;;;5.67;2.17;;;2.20;73.80;;;;;;5076150;28;20028;-79
2021/04/14 04:11:37;;;;;;;4.13;2.40;;;2.10;73.00;;;;;;5075041;28;20035;-79
2021/04/14 04:14:03;;;;;;;7.30;2.90;;;2.10;73.60;;;;;;5075828;28;20458;-80
2021/04/14 04:16:29;;;;;;;8.67;3.20;;;2.10;74.20;;;;;;5093757;28;20025;-80
2021/04/14 04:18:55;;;;;;;3.43;2.60;;;2.00;73.80;;;;;;5075405;28;20389;-80
2021/04/14 04:21:21;;;;;;;5.57;2.53;;;2.10;73.80;;;;;;5075807;28;20028;-80
2021/04/14 04:23:47;;;;;;;4.87;2.27;;;2.00;73.70;;;;;;5093198;28;20030;-80
2021/04/14 04:26:13;;;;;;;5.70;2.30;;;2.00;73.50;;;;;;5075954;28;20111;-80
2021/04/14 04:28:39;;;;;;;3.73;2.17;;;2.00;73.70;;;;;;5075288;28;20035;-79
2021/04/14 04:31:05;;;;;;;3.37;2.27;;;2.10;73.70;;;;;;5075647;28;20479;-80
2021/04/14 04:33:31;;;;;;;3.07;2.10;;;2.10;73.60;;;;;;5093894;28;20028;-80
2021/04/14 04:35:56;;;;;;;4.13;2.00;;;2.00;73.70;;;;;;5103519;28;20503;-79
2021/04/14 04:38:22;;;;;;;7.37;2.43;;;2.10;73.40;;;;;;5114112;28;20023;-80
2021/04/14 04:40:48;;;;;;;2.60;2.10;;;2.10;73.60;;;;;;5095051;28;20034;-79
2021/04/14 04:43:14;;;;;;;3.43;2.23;;;2.10;73.40;;;;;;5095416;28;20028;-79
2021/04/14 04:45:40;;;;;;;4.83;2.40;;;2.10;74.10;;;;;;5113179;28;20043;-79
2021/04/14 04:48:06;;;;;;;4.13;2.07;;;2.10;73.90;;;;;;5113800;28;20053;-79
2021/04/14 04:50:34;;;;;;;4.83;2.40;;;2.10;73.50;;;;;;5113255;28;20130;-79
2021/04/14 04:53:11;;;;;;;4.83;1.97;;;2.10;73.50;;;;;;5095765;28;20039;-79
2021/04/14 04:55:37;;;;;;;3.50;1.80;;;2.10;73.40;;;;;;5113285;28;20040;-79
2021/04/14 04:58:04;;;;;;;3.67;1.87;;;2.20;73.40;;;;;;5096012;28;20024;-79
2021/04/14 05:00:29;;;;;;;7.50;2.40;;;2.20;73.60;;;;;;5095849;28;20020;-80
2021/04/14 05:02:55;;;;;;;5.00;2.03;;;2.20;73.50;;;;;;5095052;28;20380;-79
2021/04/14 05:05:24;;;;;;;3.80;2.30;;;2.20;73.60;;;;;;5095513;28;20024;-79
2021/04/14 05:07:50;;;;;;;3.73;2.17;;;2.30;73.30;;;;;;5112803;28;20027;-79
2021/04/14 05:10:17;;;;;;;4.03;1.93;;;2.30;73.50;;;;;;5113596;28;20073;-79
2021/04/14 05:12:43;;;;;;;2.73;2.00;;;2.30;73.40;;;;;;5095184;28;20508;-79
2021/04/14 05:15:10;;;;;;;8.47;2.90;;;2.30;73.40;;;;;;5095440;28;20031;-79
2021/04/14 05:17:36;;;;;;;5.10;2.47;;;2.30;73.60;;;;;;5094509;28;20080;-79
2021/04/14 05:20:04;;;;;;;4.47;2.30;;;2.40;73.70;;;;;;5095603;28;20035;-79
2021/04/14 05:22:31;;;;;;;5.57;2.60;;;2.40;73.90;;;;;;5113553;28;20024;-80
2021/04/14 05:24:57;;;;;;;4.30;2.70;;;2.40;74.20;;;;;;5113077;28;20023;-80
2021/04/14 05:27:23;;;;;;;4.97;2.40;;;2.40;74.20;;;;;;5095389;28;20487;-80
2021/04/14 05:29:49;;;;;;;5.83;3.03;;;2.50;73.60;;;;;;5098291;28;20023;-80
2021/04/14 05:32:16;;;;;;;4.17;1.93;;;2.50;73.90;;;;;;5117216;28;20031;-79
2021/04/14 05:34:42;;;;;;;4.37;2.40;;;2.50;73.50;;;;;;5098616;28;20035;-79
2021/04/14 05:37:08;;;;;;;5.80;2.60;;;2.50;73.00;;;;;;5117199;28;20027;-80
2021/04/14 05:39:34;;;;;;;8.63;2.93;;;2.40;73.60;;;;;;5098707;28;20024;-78
2021/04/14 05:42:00;;;;;;;4.80;3.17;;;2.50;74.00;;;;;;5117523;28;20042;-81
2021/04/14 05:44:25;;;;;;;6.43;3.13;;;2.50;74.00;;;;;;5099355;28;20020;-81
2021/04/14 05:46:51;;;;;;;6.20;3.20;;;2.60;73.90;;;;;;5089662;28;20024;-80
2021/04/14 05:49:17;;;;;;;5.13;3.43;;;2.60;73.80;;;;;;5088917;28;20027;-81
2021/04/14 05:51:43;;;;;;;5.57;3.40;;;2.70;73.50;;;;;;5088713;28;20086;-80
2021/04/14 05:54:08;;;;;;;5.97;3.40;;;2.80;73.40;;;;;;5089442;28;20367;-81
2021/04/14 05:56:34;;;;;;;6.37;3.40;;;2.90;73.60;;;;;;5086875;28;20456;-78
2021/04/14 05:59:00;;;;;;;8.13;3.17;;;2.90;72.90;;;;;;5115032;28;20020;-80
2021/04/14 06:01:29;;;;;;;6.37;3.70;;;3.00;72.80;;;;;;5098922;28;20040;-81
2021/04/14 06:03:55;;;;;;;10.40;3.63;;;3.20;72.80;;;;;;5098204;28;20110;-82
2021/04/14 06:06:21;;;;;;;6.27;3.00;;;3.20;72.70;;;;;;5098277;28;20058;-80
2021/04/14 06:08:46;;;;;;;9.57;3.60;;;3.40;72.10;;;;;;5115923;28;20513;-80
2021/04/14 06:11:12;;;;;;;6.37;3.70;;;3.40;71.70;;;;;;5098749;28;20040;-80
2021/04/14 06:13:39;;;;;;;9.83;3.87;;;3.40;72.00;;;;;;5116177;28;20019;-80
2021/04/14 06:16:07;;;;;;;7.50;3.83;;;3.50;71.90;;;;;;5115828;28;20028;-80
2021/04/14 06:18:33;;;;;;;6.40;3.97;;;3.70;72.10;;;;;;5098351;28;20032;-79
2021/04/14 06:20:59;;;;;;;8.43;3.93;;;3.70;72.40;;;;;;5115506;28;20169;-79
2021/04/14 06:23:26;;;;;;;7.93;4.10;;;3.70;71.40;;;;;;5098021;28;20028;-78
2021/04/14 06:26:13;;;;;;;9.87;4.60;;;3.70;72.10;;;;;;5115151;28;20525;-80
2021/04/14 06:28:40;;;;;;;9.37;4.37;;;3.70;72.40;;;;;;5097645;28;20043;-79
2021/04/14 06:31:06;;;;;;;7.47;4.47;;;3.80;72.80;;;;;;5098370;28;20034;-79
2021/04/14 06:33:37;;;;;;;10.13;4.87;;;3.80;73.40;;;;;;5097916;28;20427;-80
2021/04/14 06:36:07;;;;;;;11.77;4.90;;;3.80;72.90;;;;;;5097459;28;20028;-80
2021/04/14 06:38:37;;;;;;;8.63;5.03;;;3.90;72.90;;;;;;5098222;28;20023;-81
2021/04/14 06:44:40;;;;;;;10.50;5.47;;;4.20;73.00;;;;;;5115639;28;20111;-80
2021/04/14 06:47:17;;;;;;;9.70;5.30;;;4.30;72.20;;;;;;5097859;28;20028;-80
2021/04/14 06:50:02;;;;;;;7.73;4.93;;;4.40;72.00;;;;;;5115388;28;20031;-81
2021/04/14 06:52:34;;;;;;;8.67;4.87;;;4.40;71.50;;;;;;5097782;28;20050;-80
2021/04/14 06:55:05;;;;;;;10.47;5.37;;;4.50;71.40;;;;;;5097733;28;20028;-80
2021/04/14 06:57:41;;;;;;;10.73;5.87;;;4.60;71.60;;;;;;5115547;28;20015;-80
2021/04/14 07:00:16;;;;;;;11.33;5.57;;;4.60;71.70;;;;;;5094355;28;20034;-79
2021/04/14 07:02:54;;;;;;;10.13;5.33;;;4.60;71.40;;;;;;5109483;28;20040;-81
2021/04/14 07:05:31;;;;;;;9.30;5.57;;;4.70;71.80;;;;;;5095592;28;20027;-82
2021/04/14 07:08:00;;;;;;;8.00;5.10;;;4.70;71.60;;;;;;5097800;28;20084;-82
2021/04/14 07:10:30;;;;;;;10.73;5.30;;;4.70;70.80;;;;;;5097979;28;20024;-82
2021/04/14 07:13:05;;;;;;;12.13;5.67;;;4.70;70.80;;;;;;5098079;28;20034;-81
2021/04/14 07:15:32;;;;;;;8.83;5.07;;;4.70;71.30;;;;;;5098594;28;20054;-79
2021/04/14 07:18:19;;;;;;;10.97;5.00;;;4.70;71.20;;;;;;5097816;28;20096;-79
2021/04/14 07:20:53;;;;;;;11.53;5.67;;;4.80;70.90;;;;;;5098614;28;20024;-80
2021/04/14 07:23:47;;;;;;;10.73;4.90;;;4.80;71.20;;;;;;5115693;28;20034;-80
2021/04/14 07:26:24;;;;;;;9.93;5.53;;;4.80;70.30;;;;;;5096852;28;20061;-80
2021/04/14 07:28:56;;;;;;;9.07;5.23;;;4.80;71.10;;;;;;5114989;28;20157;-80
2021/04/14 07:31:29;;;;;;;8.35;4.63;;;4.80;71.00;;;;;;5114935;28;20038;-78
2021/04/14 07:34:05;;;;;;;9.57;5.30;;;4.90;70.50;;;;;;5096336;28;20052;-80
2021/04/14 07:36:42;;;;;;;9.50;5.03;;;4.90;70.90;;;;;;5099651;28;20109;-79
2021/04/14 07:39:35;;;;;;;7.17;4.43;;;5.00;70.50;;;;;;5094874;28;20024;-79
2021/04/14 07:42:22;;;;;;;8.27;4.10;;;5.10;71.00;;;;;;5096616;28;20027;-81
2021/04/14 07:45:01;;;;;;;6.30;3.93;;;5.30;70.60;;;;;;5096649;28;20035;-82
2021/04/14 07:47:29;;;;;;;8.57;3.13;;;5.50;69.60;;;;;;5096254;28;20031;-81
2021/04/14 07:49:57;;;;;;;8.97;3.37;;;5.60;68.30;;;;;;5114286;28;20038;-82
2021/04/14 07:52:30;;;;;;;4.80;2.90;;;5.60;66.30;;;;;;5096082;28;20031;-82
2021/04/14 07:54:56;;;;;;;5.40;3.27;;;5.80;67.50;;;;;;5113802;28;20023;-83
2021/04/14 07:57:38;;;;;;;11.27;3.80;;;5.90;66.70;;;;;;5115297;28;20034;-82
2021/04/14 08:00:33;;;;;;;5.90;3.72;;;6.00;66.80;;;;;;5096187;28;20055;-82
2021/04/14 08:03:15;;;;;;;9.47;4.20;;;6.10;66.50;;;;;;5096025;28;20636;-81
2021/04/14 08:05:42;;;;;;;7.27;4.03;;;6.30;66.50;;;;;;5111970;28;20027;-79
2021/04/14 08:08:17;;;;;;;6.53;3.37;;;6.40;65.20;;;;;;5096039;28;20023;-84
2021/04/14 08:10:57;;;;;;;7.03;3.73;;;6.50;64.60;;;;;;5096280;28;20019;-83
2021/04/14 08:13:30;;;;;;;7.30;3.57;;;6.50;64.20;;;;;;5095321;28;20024;-84
2021/04/14 08:15:56;;;;;;;8.00;3.40;;;6.60;64.10;;;;;;5090770;28;20507;-82
2021/04/14 08:18:34;;;;;;;9.13;3.07;;;6.60;64.10;;;;;;5114649;28;20035;-83
2021/04/14 08:21:05;;;;;;;6.77;2.60;;;6.60;63.70;;;;;;5078556;28;20389;-81
2021/04/14 08:23:31;;;;;;;4.50;2.57;;;6.60;63.00;;;;;;5107851;28;20034;-79
2021/04/14 08:26:00;;;;;;;5.53;2.60;;;6.70;63.90;;;;;;5087777;28;20020;-79
2021/04/14 08:28:34;;;;;;;4.30;2.70;;;6.70;63.50;;;;;;5113419;28;20464;-78
2021/04/14 08:31:10;;;;;;;5.10;2.47;;;6.70;62.40;;;;;;5090687;28;20468;-78
2021/04/14 08:33:37;;;;;;;3.60;2.33;;;6.70;62.30;;;;;;5089417;28;20088;-77
2021/04/14 08:36:27;;;;;;;4.73;2.80;;;6.60;62.60;;;;;;5094159;28;20023;-77
2021/04/14 08:38:53;;;;;;;5.27;2.40;;;6.60;62.50;;;;;;5086247;28;20063;-85
2021/04/14 08:41:30;;;;;;;4.67;2.30;;;6.60;62.30;;;;;;5095005;28;20063;-75
2021/04/14 08:44:08;;;;;;;4.23;2.50;;;6.50;62.40;;;;;;5111968;28;20024;-77
2021/04/14 08:46:38;;;;;;;4.67;2.70;;;6.50;62.30;;;;;;5094609;28;20115;-77
2021/04/14 08:49:14;;;;;;;5.30;3.10;;;6.50;62.50;;;;;;5094626;28;20479;-77
2021/04/14 08:51:46;;;;;;;7.00;2.90;;;6.50;63.60;;;;;;5094435;28;20054;-78
2021/04/14 08:54:14;;;;;;;;;;;6.60;63.70;;;;;;5093277;28;20034;-76
2021/04/14 08:56:40;;;;;;;5.10;2.60;;;6.60;62.70;;;;;;5111870;28;19915;-77
2021/04/14 08:59:07;;;;;;;6.83;2.43;;;6.60;61.40;;;;;;5094138;28;20031;-76
2021/04/14 09:01:33;;;;;;;5.00;2.30;;;6.70;61.20;;;;;;5089386;28;20028;-74
2021/04/14 09:04:02;;;;;;;6.00;2.53;;;6.70;61.50;;;;;;5094398;28;20107;-76
2021/04/14 09:06:32;;;;;;;4.60;2.10;;;6.70;61.10;;;;;;5093266;28;20035;-76
2021/04/14 09:09:03;;;;;;;5.13;2.33;;;6.80;61.40;;;;;;5097648;28;20032;-75
2021/04/14 09:11:30;;;;;;;3.50;2.27;;;6.90;60.60;;;;;;5099015;28;20032;-75
2021/04/14 09:14:14;;;;;;;4.80;1.80;;;6.90;60.60;;;;;;5098070;28;20027;-78
2021/04/14 09:16:54;;;;;;;4.20;1.80;;;6.90;59.00;;;;;;5116247;28;20023;-80
2021/04/14 09:19:31;;;;;;;4.03;1.50;;;6.90;58.40;;;;;;5098687;28;20059;-77
2021/04/14 09:22:16;;;;;;;5.10;1.20;;;7.00;57.70;;;;;;5098129;28;20038;-76
2021/04/14 09:25:02;;;;;;;2.43;1.13;;;7.00;56.90;;;;;;5116022;28;20063;-78
2021/04/14 09:27:37;;;;;;;3.00;1.40;;;7.10;57.60;;;;;;5098449;28;20039;-76
2021/04/14 09:30:11;;;;;;;2.77;1.40;;;7.20;56.50;;;;;;5097442;28;20043;-76
2021/04/14 09:32:54;;;;;;;4.93;1.17;;;7.20;56.90;;;;;;5098054;28;20036;-77
2021/04/14 09:35:28;;;;;;;3.47;1.07;;;7.20;55.40;;;;;;5116205;28;20135;-75
2021/04/14 09:38:19;;;;;;;1.97;1.00;;;7.30;56.90;;;;;;5115922;28;20020;-76
2021/04/14 09:40:45;;;;;;;3.60;1.80;;;7.50;57.90;;;;;;5097487;28;20480;-77
2021/04/14 09:43:26;;;;;;;3.17;1.10;;;7.50;58.00;;;;;;5097886;28;20110;-75
2021/04/14 09:45:55;;;;;;;3.87;1.23;;;7.50;55.40;;;;;;5097101;28;20392;-75
2021/04/14 09:48:21;;;;;;;2.37;1.40;;;7.60;56.30;;;;;;5115966;28;20028;-76
2021/04/14 09:50:48;;;;;;;4.47;1.83;;;7.50;55.90;;;;;;5096805;28;20051;-76
2021/04/14 09:53:30;;;;;;;4.47;1.30;;;7.60;55.80;;;;;;5116028;28;20023;-75
2021/04/14 09:56:10;;;;;;;5.50;1.33;;;7.60;55.10;;;;;;5096676;28;20028;-77
2021/04/14 09:59:07;;;;;;;3.67;1.40;;;7.60;55.00;;;;;;5116096;28;20047;-75
2021/04/14 10:01:36;;;;;;;3.77;1.50;;;7.60;55.60;;;;;;5097762;28;20030;-77
2021/04/14 10:04:21;;;;;;;2.23;1.27;;;7.80;54.30;;;;;;5096325;28;20036;-77
2021/04/14 10:06:48;;;;;;;4.33;1.77;;;8.00;55.50;;;;;;5096408;28;20047;-78
2021/04/14 10:09:40;;;;;;;4.40;1.90;;;8.10;53.70;;;;;;5097349;28;20020;-77
2021/04/14 10:12:14;;;;;;;5.38;1.20;;;8.20;52.90;;;;;;5092090;28;20127;-78
2021/04/14 10:14:50;;;;;;;1.70;1.15;;;8.30;51.20;;;;;;5097497;28;20101;-77
2021/04/14 10:17:25;;;;;;;4.97;1.17;;;8.30;50.10;;;;;;5115645;28;20028;-77
2021/04/14 10:19:53;;;;;;;3.97;1.40;;;8.40;49.50;;;;;;5113837;28;20107;-76
2021/04/14 10:22:32;;;;;;;2.43;1.20;;;8.40;50.30;;;;;;5096769;28;20038;-78
2021/04/14 10:25:04;;;;;;;4.63;1.55;;;8.50;49.60;;;;;;5115442;28;20043;-80
2021/04/14 10:27:30;;;;;;;2.95;1.50;;;8.50;49.60;;;;;;5116041;28;20066;-78
2021/04/14 10:30:00;;;;;;;3.00;1.35;;;8.40;50.00;;;;;;5097107;28;20123;-78
2021/04/14 10:32:28;;;;;;;3.40;1.73;;;8.30;50.30;;;;;;5115399;28;20118;-77
2021/04/14 10:34:54;;;;;;;4.28;1.60;;;8.40;50.20;;;;;;5096527;28;20476;-78
2021/04/14 10:37:25;;;;;;;4.87;1.60;;;8.40;49.70;;;;;;5114969;28;20031;-77
2021/04/14 10:39:52;;;;;;;5.38;1.60;;;8.50;49.80;;;;;;5095900;28;20475;-77
2021/04/14 10:42:25;;;;;;;2.90;1.50;;;8.50;49.50;;;;;;5096635;28;20490;-78
2021/04/14 10:44:54;;;;;;;5.32;1.67;;;8.60;49.10;;;;;;5095855;28;20038;-78
2021/04/14 10:47:27;;;;;;;3.60;1.48;;;8.60;49.20;;;;;;5096443;28;20080;-79
2021/04/14 10:50:02;;;;;;;3.90;1.40;;;8.70;48.80;;;;;;5114567;28;20086;-79
2021/04/14 10:52:29;;;;;;;3.25;1.27;;;8.80;49.10;;;;;;5095295;28;20034;-79
2021/04/14 10:55:16;;;;;;;2.58;1.23;;;9.00;49.00;;;;;;5096150;28;20027;-80
2021/04/14 10:57:46;;;;;;;3.40;1.48;;;9.20;48.60;;;;;;5096405;28;20027;-79
2021/04/14 11:00:34;;;;;;;4.05;1.63;;;9.10;48.60;;;;;;5097491;28;20853;-79
2021/04/14 11:03:14;;;;;;;2.45;1.50;;;9.00;47.10;;;;;;5096757;28;20028;-79
2021/04/14 11:06:02;;;;;;;5.22;1.30;;;8.90;47.10;;;;;;5097241;28;20039;-77
2021/04/14 11:08:29;;;;;;;2.95;1.40;;;8.80;48.50;;;;;;5096677;28;20027;-77
2021/04/14 11:10:59;;;;;;;3.75;1.55;;;8.80;49.00;;;;;;5096041;28;20031;-77
2021/04/14 11:13:28;;;;;;;60.95;25.75;;;8.70;49.20;;;;;;5096874;28;20065;-84
2021/04/14 11:15:55;;;;;;;24.95;11.73;;;8.80;50.90;;;;;;5096398;28;20038;-81
2021/04/14 11:18:35;;;;;;;8.65;5.15;;;8.70;50.80;;;;;;5096996;28;20023;-78
2021/04/14 11:23:34;;;;;;;2.13;1.65;;;8.70;48.80;;;;;;5115112;28;20028;-80
2021/04/14 11:26:08;;;;;;;1.67;1.42;;;8.70;46.80;;;;;;5089560;28;20150;-79
2021/04/14 11:28:44;;;;;;;1.90;1.30;;;8.70;46.00;;;;;;5097050;28;20024;-81
2021/04/14 11:31:13;;;;;;;1.85;1.13;;;8.80;46.70;;;;;;5096430;28;20461;-80
2021/04/14 11:33:45;;;;;;;2.72;1.60;;;8.80;46.40;;;;;;5097113;28;20053;-80
2021/04/14 11:36:24;;;;;;;3.58;1.10;;;9.00;47.20;;;;;;5096129;28;20020;-80
2021/04/14 11:39:00;;;;;;;2.92;1.48;;;9.00;47.50;;;;;;5114232;28;20182;-80
2021/04/14 11:41:29;;;;;;;2.85;1.33;;;9.10;47.80;;;;;;5096731;28;20110;-80
2021/04/14 11:43:55;;;;;;;4.80;1.25;;;9.20;48.60;;;;;;5096149;28;20154;-81
2021/04/14 11:46:38;;;;;;;3.15;1.30;;;9.30;50.00;;;;;;5096669;28;20163;-80
2021/04/14 11:49:06;;;;;;;;;;;9.30;50.30;;;;;;5114843;28;20032;-81
2021/04/14 11:51:45;;;;;;;4.60;1.40;;;9.30;50.70;;;;;;5114494;28;19916;-82
2021/04/14 11:54:16;;;;;;;2.20;1.50;;;9.20;50.90;;;;;;5096762;28;20031;-82
2021/04/14 11:57:08;;;;;;;1.98;1.40;;;9.20;51.30;;;;;;5096765;28;20468;-82
2021/04/14 11:59:35;;;;;;;2.35;1.50;;;9.30;49.60;;;;;;5097133;28;20070;-82
2021/04/14 12:02:23;;;;;;;2.55;1.10;;;9.30;48.20;;;;;;5075602;28;20036;-82
2021/04/14 12:04:59;;;;;;;1.40;1.20;;;9.20;46.10;;;;;;5076970;28;20031;-83
2021/04/14 12:07:25;;;;;;;2.17;1.20;;;9.00;45.60;;;;;;5096443;28;20020;-82
2021/04/14 12:09:51;;;;;;;1.63;1.13;;;9.10;45.50;;;;;;5114272;28;20038;-82
2021/04/14 12:12:17;;;;;;;1.98;1.20;;;9.10;45.40;;;;;;5114297;28;20473;-81
2021/04/14 12:14:43;;;;;;;2.13;1.35;;;9.10;45.00;;;;;;5096540;28;20027;-82
2021/04/14 12:17:10;;;;;;;1.85;1.10;;;9.10;45.80;;;;;;5095963;28;20032;-82
2021/04/14 12:19:36;;;;;;;1.38;1.08;;;9.20;45.80;;;;;;5096511;28;20024;-82
2021/04/14 12:22:02;;;;;;;1.17;0.88;;;9.30;45.70;;;;;;5095064;28;20035;-80
2021/04/14 12:24:27;;;;;;;1.33;1.23;;;9.40;44.70;;;;;;5095667;28;20031;-80
2021/04/14 12:26:54;;;;;;;2.25;1.00;;;9.60;44.70;;;;;;5094705;28;20059;-81
2021/04/14 12:29:20;;;;;;;3.03;1.20;;;9.90;45.10;;;;;;5095140;28;20460;-81
2021/04/14 12:31:46;;;;;;;2.63;1.30;;;10.20;44.60;;;;;;5092380;28;20080;-81
2021/04/14 12:34:12;;;;;;;2.25;1.23;;;10.30;44.50;;;;;;5091099;28;20663;-81
2021/04/14 12:36:38;;;;;;;2.13;1.17;;;10.50;45.00;;;;;;5094702;28;20059;-80
2021/04/14 12:39:06;;;;;;;1.90;1.10;;;10.70;42.70;;;;;;5095525;28;20035;-82
2021/04/14 12:41:31;;;;;;;1.10;0.90;;;10.80;43.70;;;;;;5095609;28;20028;-83
2021/04/14 12:43:57;;;;;;;1.65;1.13;;;11.00;41.80;;;;;;5095275;28;20046;-83
2021/04/14 12:46:23;;;;;;;1.63;1.05;;;11.00;42.40;;;;;;5095567;28;20076;-82
2021/04/14 12:48:52;;;;;;;1.35;0.95;;;11.10;41.10;;;;;;5095199;28;20027;-82
2021/04/14 12:51:36;;;;;;;1.38;0.90;;;11.30;39.80;;;;;;5095475;28;20052;-83
2021/04/14 12:54:14;;;;;;;1.13;0.75;;;11.60;38.10;;;;;;5095255;28;20119;-81
2021/04/14 12:56:53;;;;;;;1.45;0.82;;;12.00;38.00;;;;;;5095858;28;20023;-81
2021/04/14 12:59:25;;;;;;;1.35;1.23;;;12.50;37.00;;;;;;5095879;28;20034;-81
2021/04/14 13:02:02;;;;;;;2.50;0.93;;;12.90;36.40;;;;;;5092472;28;20075;-79
2021/04/14 13:04:34;;;;;;;1.08;0.85;;;13.20;36.40;;;;;;5111531;28;20031;-78
2021/04/14 13:07:09;;;;;;;1.10;1.00;;;13.50;37.60;;;;;;5093374;28;20015;-78
2021/04/14 13:09:35;;;;;;;3.17;1.10;;;13.40;36.10;;;;;;5094719;28;20028;-77
2021/04/14 13:12:11;;;;;;;3.42;1.42;;;13.30;37.10;;;;;;5091844;28;20024;-78
2021/04/14 13:14:37;;;;;;;2.13;1.08;;;13.30;36.20;;;;;;5094826;28;20081;-79
2021/04/14 13:17:10;;;;;;;1.92;1.20;;;13.20;36.00;;;;;;5094403;28;20032;-77
2021/04/14 13:19:36;;;;;;;3.30;1.00;;;13.70;35.80;;;;;;5094991;28;20073;-77